Time;durP1;ratioP1;P1;durP2;ratioP2;P2;SDS_P1;SDS_P2;PMS_P1;PMS_P2;Temp;Humidity;BMP_temperature;BMP_pressure;BME280_temperature;BME280_humidity;BME280_pressure;Samples;Min_cycle;Max_cycle;Signal;HPM_P1;HPM_P2
2023/06/10 00:02:07;;;;;;;11.73;4.22;;;;;;;;;;4973911;28;20358;-73
2023/06/10 00:04:36;;;;;;;7.47;3.95;;;;;;;;;;4973647;28;20019;-72
2023/06/10 00:07:08;;;;;;;7.25;3.70;;;;;;;;;;4974366;28;20043;-72
2023/06/10 00:09:43;;;;;;;8.13;3.33;;;;;;;;;;4973478;28;20057;-72
2023/06/10 00:12:11;;;;;;;6.78;3.45;;;;;;;;;;4973657;28;20034;-72
2023/06/10 00:14:39;;;;;;;7.18;3.63;;;;;;;;;;4973369;28;20026;-72
2023/06/10 00:17:09;;;;;;;8.38;3.70;;;;;;;;;;4984920;28;20172;-72
2023/06/10 00:19:36;;;;;;;8.82;3.78;;;;;;;;;;4992851;28;20408;-72
2023/06/10 00:22:02;;;;;;;7.55;4.20;;;;;;;;;;4988273;28;20104;-71
2023/06/10 00:24:29;;;;;;;11.73;4.97;;;;;;;;;;4968300;28;20042;-71
2023/06/10 00:26:54;;;;;;;7.85;5.18;;;;;;;;;;4973396;28;20493;-71
2023/06/10 00:29:20;;;;;;;10.48;5.10;;;;;;;;;;4968974;28;20035;-72
2023/06/10 00:31:46;;;;;;;6.68;5.05;;;;;;;;;;4970680;28;20089;-72
2023/06/10 00:34:12;;;;;;;7.35;4.80;;;;;;;;;;5001766;28;20031;-72
2023/06/10 00:36:38;;;;;;;12.02;5.50;;;;;;;;;;4972447;28;20022;-71
2023/06/10 00:39:04;;;;;;;6.88;4.50;;;;;;;;;;4968750;28;20108;-71
2023/06/10 00:41:30;;;;;;;12.43;5.10;;;;;;;;;;4970434;28;20069;-71
2023/06/10 00:43:57;;;;;;;13.48;5.00;;;;;;;;;;4968163;28;20038;-71
2023/06/10 00:46:25;;;;;;;8.82;5.20;;;;;;;;;;4966604;28;20378;-72
2023/06/10 00:48:51;;;;;;;9.77;5.15;;;;;;;;;;4970170;28;20041;-72
2023/06/10 00:51:17;;;;;;;10.85;5.00;;;;;;;;;;4971699;28;20019;-72
2023/06/10 00:53:43;;;;;;;11.75;4.63;;;;;;;;;;4970643;28;20114;-71
2023/06/10 00:56:10;;;;;;;8.95;4.63;;;;;;;;;;4972113;28;20034;-71
2023/06/10 00:58:36;;;;;;;6.88;4.22;;;;;;;;;;4969670;28;20133;-72
2023/06/10 01:01:03;;;;;;;9.40;4.38;;;;;;;;;;4970640;28;20122;-71
2023/06/10 01:03:30;;;;;;;7.70;4.40;;;;;;;;;;4973556;28;20046;-71
2023/06/10 01:06:09;;;;;;;9.13;4.30;;;;;;;;;;4972560;28;20366;-72
2023/06/10 01:08:48;;;;;;;10.95;5.30;;;;;;;;;;4971573;28;20042;-71
2023/06/10 01:11:23;;;;;;;8.60;5.40;;;;;;;;;;4971698;28;20100;-71
2023/06/10 01:13:51;;;;;;;11.10;5.65;;;;;;;;;;4971735;28;20121;-71
2023/06/10 01:16:19;;;;;;;17.08;5.97;;;;;;;;;;4971947;28;20097;-73
2023/06/10 01:18:45;;;;;;;13.85;6.45;;;;;;;;;;4971523;28;20077;-72
2023/06/10 01:21:20;;;;;;;10.23;6.07;;;;;;;;;;4972787;28;20062;-72
2023/06/10 01:23:46;;;;;;;12.40;6.65;;;;;;;;;;4973247;28;20449;-72
2023/06/10 01:26:14;;;;;;;13.65;6.22;;;;;;;;;;4973090;28;20030;-72
2023/06/10 01:28:58;;;;;;;9.23;6.05;;;;;;;;;;4971062;28;20030;-72
2023/06/10 01:31:36;;;;;;;11.82;6.15;;;;;;;;;;4966665;28;20508;-72
2023/06/10 01:34:06;;;;;;;13.38;6.07;;;;;;;;;;4971627;28;20039;-71
2023/06/10 01:36:33;;;;;;;12.43;6.63;;;;;;;;;;4972573;28;20049;-71
2023/06/10 01:39:00;;;;;;;11.00;6.32;;;;;;;;;;4972893;28;20084;-71
2023/06/10 01:41:26;;;;;;;11.18;6.00;;;;;;;;;;4971441;28;20117;-72
2023/06/10 01:43:54;;;;;;;11.05;5.97;;;;;;;;;;4971420;28;20057;-73
2023/06/10 01:46:21;;;;;;;11.13;6.43;;;;;;;;;;4971367;28;20061;-72
2023/06/10 01:48:47;;;;;;;8.45;6.38;;;;;;;;;;4972664;28;20102;-72
2023/06/10 01:51:15;;;;;;;12.05;6.50;;;;;;;;;;4972758;28;20034;-72
2023/06/10 01:53:41;;;;;;;14.10;6.78;;;;;;;;;;4971393;28;20452;-72
2023/06/10 01:56:06;;;;;;;12.95;6.47;;;;;;;;;;4972693;28;20034;-72
2023/06/10 01:58:32;;;;;;;11.52;6.47;;;;;;;;;;4973809;28;20026;-71
2023/06/10 02:00:58;;;;;;;9.02;5.18;;;;;;;;;;4974770;28;20042;-73
2023/06/10 02:03:24;;;;;;;8.73;5.15;;;;;;;;;;5008844;28;20053;-72
2023/06/10 02:05:50;;;;;;;11.25;5.90;;;;;;;;;;4977475;28;20046;-72
2023/06/10 02:08:16;;;;;;;10.05;6.60;;;;;;;;;;4976001;28;20038;-72
2023/06/10 02:10:41;;;;;;;11.35;7.65;;;;;;;;;;4975870;28;20043;-71
2023/06/10 02:13:07;;;;;;;13.10;6.55;;;;;;;;;;4974761;28;20058;-72
2023/06/10 02:15:33;;;;;;;11.60;6.95;;;;;;;;;;4974778;28;20401;-72
2023/06/10 02:17:59;;;;;;;13.63;6.90;;;;;;;;;;4971556;28;20488;-72
2023/06/10 02:20:25;;;;;;;10.70;6.53;;;;;;;;;;4974437;28;20134;-72
2023/06/10 02:22:51;;;;;;;10.25;6.13;;;;;;;;;;4975826;28;20101;-72
2023/06/10 02:25:17;;;;;;;15.93;6.43;;;;;;;;;;4974331;28;20038;-71
2023/06/10 02:27:43;;;;;;;13.85;6.88;;;;;;;;;;4974471;28;20046;-72
2023/06/10 02:30:12;;;;;;;12.43;6.32;;;;;;;;;;4972238;28;20516;-71
2023/06/10 02:32:38;;;;;;;12.45;7.18;;;;;;;;;;4974833;28;20046;-72
2023/06/10 02:35:05;;;;;;;25.67;8.25;;;;;;;;;;4974181;28;20035;-72
2023/06/10 02:37:32;;;;;;;16.50;6.78;;;;;;;;;;4974005;28;20543;-72
2023/06/10 02:39:57;;;;;;;13.63;7.40;;;;;;;;;;4974030;28;20054;-72
2023/06/10 02:42:24;;;;;;;15.85;7.40;;;;;;;;;;4974053;28;20438;-72
2023/06/10 02:44:51;;;;;;;9.63;7.10;;;;;;;;;;4974081;28;20023;-73
2023/06/10 02:47:27;;;;;;;12.13;7.10;;;;;;;;;;4973898;28;20122;-72
2023/06/10 02:49:53;;;;;;;13.85;6.90;;;;;;;;;;4975190;28;20452;-73
2023/06/10 02:52:18;;;;;;;8.63;5.65;;;;;;;;;;4973912;28;20031;-72
2023/06/10 02:54:45;;;;;;;11.85;6.32;;;;;;;;;;4973868;28;20088;-72
2023/06/10 02:57:11;;;;;;;14.35;6.80;;;;;;;;;;4973999;28;20117;-72
2023/06/10 02:59:37;;;;;;;17.45;6.93;;;;;;;;;;4973822;28;20034;-72
2023/06/10 03:02:04;;;;;;;11.95;6.25;;;;;;;;;;4973749;28;20034;-72
2023/06/10 03:04:37;;;;;;;11.75;5.78;;;;;;;;;;4973787;28;20039;-72
2023/06/10 03:07:08;;;;;;;8.20;5.68;;;;;;;;;;4979876;28;20050;-72
2023/06/10 03:09:34;;;;;;;8.73;5.60;;;;;;;;;;4972860;28;20059;-72
2023/06/10 03:12:02;;;;;;;8.05;4.68;;;;;;;;;;4973586;28;20117;-72
2023/06/10 03:14:34;;;;;;;8.18;4.80;;;;;;;;;;4973612;28;20097;-72
2023/06/10 03:17:02;;;;;;;7.20;5.00;;;;;;;;;;4973624;28;20045;-72
2023/06/10 03:19:28;;;;;;;11.65;5.40;;;;;;;;;;4973099;28;20489;-73
2023/06/10 03:22:07;;;;;;;10.77;6.10;;;;;;;;;;4973378;28;20121;-71
2023/06/10 03:24:39;;;;;;;10.52;5.03;;;;;;;;;;4973497;28;20405;-72
2023/06/10 03:27:08;;;;;;;8.57;5.72;;;;;;;;;;4973508;28;20567;-72
2023/06/10 03:29:35;;;;;;;11.73;5.85;;;;;;;;;;4973346;28;20042;-72
2023/06/10 03:32:03;;;;;;;13.95;6.85;;;;;;;;;;4973385;28;20049;-72
2023/06/10 03:34:29;;;;;;;14.63;5.95;;;;;;;;;;4957218;28;20058;-72
2023/06/10 03:36:56;;;;;;;6.95;5.03;;;;;;;;;;4973225;28;20031;-72
2023/06/10 03:39:23;;;;;;;9.05;5.60;;;;;;;;;;4973209;28;20109;-72
2023/06/10 03:41:50;;;;;;;14.32;5.35;;;;;;;;;;4973241;28;20400;-72
2023/06/10 03:44:16;;;;;;;9.98;5.75;;;;;;;;;;4974479;28;20037;-72
2023/06/10 03:46:42;;;;;;;24.00;6.15;;;;;;;;;;4973133;28;20504;-73
2023/06/10 03:49:09;;;;;;;21.17;7.00;;;;;;;;;;4974105;28;20037;-72
2023/06/10 03:51:36;;;;;;;13.18;5.65;;;;;;;;;;4972844;28;20141;-72
2023/06/10 03:54:02;;;;;;;10.13;4.60;;;;;;;;;;4972899;28;20477;-72
2023/06/10 03:56:28;;;;;;;6.28;4.32;;;;;;;;;;4972763;28;20039;-71
2023/06/10 03:58:55;;;;;;;13.95;5.30;;;;;;;;;;5005083;28;20023;-72
2023/06/10 04:01:23;;;;;;;7.93;4.53;;;;;;;;;;4972579;28;20042;-72
2023/06/10 04:03:51;;;;;;;8.77;4.30;;;;;;;;;;4972614;28;20031;-73
2023/06/10 04:06:17;;;;;;;8.75;4.38;;;;;;;;;;4973731;28;20531;-72
2023/06/10 04:08:42;;;;;;;8.40;4.90;;;;;;;;;;4973644;28;20026;-72
2023/06/10 04:11:09;;;;;;;10.80;4.03;;;;;;;;;;4972168;28;20513;-72
2023/06/10 04:13:35;;;;;;;8.88;4.43;;;;;;;;;;4972154;28;20030;-72
2023/06/10 04:16:02;;;;;;;12.00;4.72;;;;;;;;;;4972046;28;20042;-72
2023/06/10 04:18:28;;;;;;;11.38;5.60;;;;;;;;;;4972299;28;20027;-72
2023/06/10 04:20:57;;;;;;;8.07;4.63;;;;;;;;;;4971289;28;20066;-72
2023/06/10 04:23:23;;;;;;;13.18;4.70;;;;;;;;;;4972184;28;20031;-72
2023/06/10 04:25:50;;;;;;;5.57;4.45;;;;;;;;;;4972113;28;20042;-71
2023/06/10 04:28:18;;;;;;;7.05;4.28;;;;;;;;;;4973318;28;20515;-71
2023/06/10 04:30:45;;;;;;;13.40;7.70;;;;;;;;;;4971906;28;20066;-73
2023/06/10 04:33:11;;;;;;;8.25;5.28;;;;;;;;;;4971931;28;20031;-72
2023/06/10 04:35:38;;;;;;;7.95;4.55;;;;;;;;;;4972016;28;20039;-71
2023/06/10 04:38:06;;;;;;;5.88;4.50;;;;;;;;;;4971705;28;20034;-72
2023/06/10 04:40:32;;;;;;;7.93;4.28;;;;;;;;;;4955609;28;20394;-72
2023/06/10 04:42:58;;;;;;;7.25;4.50;;;;;;;;;;4971844;28;20047;-71
2023/06/10 04:45:24;;;;;;;15.80;5.18;;;;;;;;;;4971512;28;20042;-72
2023/06/10 04:47:51;;;;;;;8.90;4.28;;;;;;;;;;4955370;28;20177;-72
2023/06/10 04:50:17;;;;;;;19.02;6.18;;;;;;;;;;4972872;28;20110;-72
2023/06/10 04:52:44;;;;;;;8.80;4.43;;;;;;;;;;4971390;28;20625;-72
2023/06/10 04:55:10;;;;;;;8.48;4.65;;;;;;;;;;4972621;28;20042;-72
2023/06/10 04:57:36;;;;;;;14.63;4.40;;;;;;;;;;4972859;28;20026;-72
2023/06/10 05:00:05;;;;;;;10.57;4.43;;;;;;;;;;4972291;28;20039;-72
2023/06/10 05:02:31;;;;;;;9.63;4.47;;;;;;;;;;4972440;28;20600;-71
2023/06/10 05:04:57;;;;;;;10.15;4.38;;;;;;;;;;4968794;28;20117;-71
2023/06/10 05:07:23;;;;;;;8.25;4.97;;;;;;;;;;4972312;28;20030;-75
2023/06/10 05:09:49;;;;;;;11.52;4.38;;;;;;;;;;4971416;28;20042;-76
2023/06/10 05:12:15;;;;;;;7.90;4.13;;;;;;;;;;4972068;28;20038;-75
2023/06/10 05:14:41;;;;;;;6.57;4.10;;;;;;;;;;4968605;28;20047;-75
2023/06/10 05:17:06;;;;;;;10.43;4.15;;;;;;;;;;4972744;28;20059;-76
2023/06/10 05:19:32;;;;;;;9.80;4.00;;;;;;;;;;4972825;28;20039;-74
2023/06/10 05:21:59;;;;;;;9.82;3.72;;;;;;;;;;4971742;28;20484;-77
2023/06/10 05:24:25;;;;;;;6.43;3.70;;;;;;;;;;4972448;28;20026;-76
2023/06/10 05:26:52;;;;;;;8.55;3.90;;;;;;;;;;4971500;28;20037;-75
2023/06/10 05:29:18;;;;;;;5.10;3.70;;;;;;;;;;4972362;28;20050;-76
2023/06/10 05:31:44;;;;;;;6.43;4.05;;;;;;;;;;4972836;28;20034;-75
2023/06/10 05:34:10;;;;;;;7.97;4.25;;;;;;;;;;4975039;28;20046;-76
2023/06/10 05:36:37;;;;;;;7.72;4.35;;;;;;;;;;4976407;28;20046;-75
2023/06/10 05:39:03;;;;;;;13.50;4.78;;;;;;;;;;4976180;28;20037;-76
2023/06/10 05:41:29;;;;;;;6.47;4.18;;;;;;;;;;4975035;28;20034;-75
2023/06/10 05:43:55;;;;;;;9.18;4.40;;;;;;;;;;4976279;28;20548;-75
2023/06/10 05:46:21;;;;;;;8.98;4.30;;;;;;;;;;4976097;28;20114;-76
2023/06/10 05:48:47;;;;;;;6.20;4.10;;;;;;;;;;4976155;28;20041;-76
2023/06/10 05:51:13;;;;;;;8.65;4.00;;;;;;;;;;4976111;28;20019;-76
2023/06/10 05:53:39;;;;;;;10.63;4.70;;;;;;;;;;4974462;28;20070;-75
2023/06/10 05:56:06;;;;;;;6.32;4.38;;;;;;;;;;4976043;28;20022;-75
2023/06/10 05:58:32;;;;;;;6.72;4.07;;;;;;;;;;4976029;28;20041;-76
2023/06/10 06:00:58;;;;;;;8.77;4.13;;;;;;;;;;4975905;28;20023;-75
2023/06/10 06:03:24;;;;;;;6.85;4.20;;;;;;;;;;4975037;28;20129;-74
2023/06/10 06:05:49;;;;;;;11.10;3.97;;;;;;;;;;4976023;28;20039;-75
2023/06/10 06:08:18;;;;;;;7.15;4.30;;;;;;;;;;4975673;28;20428;-74
2023/06/10 06:10:47;;;;;;;8.68;4.70;;;;;;;;;;4975940;28;20022;-75
2023/06/10 06:13:13;;;;;;;9.85;4.70;;;;;;;;;;4975578;28;20113;-76
2023/06/10 06:15:39;;;;;;;8.57;4.43;;;;;;;;;;4976081;28;20105;-75
2023/06/10 06:18:05;;;;;;;5.93;3.70;;;;;;;;;;4974223;28;20471;-76
2023/06/10 06:20:30;;;;;;;6.63;4.55;;;;;;;;;;4974614;28;20401;-77
2023/06/10 06:22:57;;;;;;;5.85;4.07;;;;;;;;;;4974348;28;20026;-76
2023/06/10 06:25:23;;;;;;;6.95;4.20;;;;;;;;;;4974645;28;20093;-76
2023/06/10 06:27:49;;;;;;;7.30;3.97;;;;;;;;;;4975097;28;20059;-76
2023/06/10 06:30:15;;;;;;;8.18;3.80;;;;;;;;;;4975048;28;20085;-76
2023/06/10 06:32:41;;;;;;;9.55;4.20;;;;;;;;;;4975293;28;20465;-76
2023/06/10 06:35:09;;;;;;;7.60;4.10;;;;;;;;;;4974840;28;20035;-76
2023/06/10 06:37:35;;;;;;;10.05;4.95;;;;;;;;;;4983973;28;20039;-77
2023/06/10 06:40:15;;;;;;;11.45;4.50;;;;;;;;;;4979272;28;20038;-76
2023/06/10 06:42:43;;;;;;;7.43;3.80;;;;;;;;;;4994816;28;20145;-74
2023/06/10 06:45:24;;;;;;;6.28;4.07;;;;;;;;;;4992726;28;20040;-79
2023/06/10 06:47:51;;;;;;;7.00;4.20;;;;;;;;;;4993460;28;20126;-76
2023/06/10 06:50:16;;;;;;;7.03;4.13;;;;;;;;;;4996056;28;20031;-77
2023/06/10 06:52:42;;;;;;;6.30;4.20;;;;;;;;;;4995161;28;20030;-77
2023/06/10 06:55:08;;;;;;;8.45;4.20;;;;;;;;;;4993709;28;20378;-78
2023/06/10 06:57:36;;;;;;;8.00;4.00;;;;;;;;;;4990710;28;20380;-77
2023/06/10 07:00:18;;;;;;;5.70;3.67;;;;;;;;;;4973619;28;20026;-77
2023/06/10 07:02:43;;;;;;;5.80;3.83;;;;;;;;;;4975037;28;20074;-78
2023/06/10 07:05:09;;;;;;;7.50;4.70;;;;;;;;;;4974752;28;20038;-78
2023/06/10 07:07:36;;;;;;;7.78;3.63;;;;;;;;;;4958017;28;20038;-79
2023/06/10 07:10:02;;;;;;;6.78;3.90;;;;;;;;;;4973476;28;20058;-76
2023/06/10 07:12:28;;;;;;;6.30;3.63;;;;;;;;;;4973725;28;20448;-79
2023/06/10 07:14:56;;;;;;;8.07;4.30;;;;;;;;;;4973291;28;20023;-77
2023/06/10 07:17:22;;;;;;;7.40;4.00;;;;;;;;;;4973878;28;20045;-77
2023/06/10 07:19:47;;;;;;;7.95;4.18;;;;;;;;;;4974446;28;20023;-78
2023/06/10 07:22:14;;;;;;;5.82;3.60;;;;;;;;;;4974352;28;20054;-77
2023/06/10 07:24:40;;;;;;;5.35;3.50;;;;;;;;;;4974110;28;20031;-76
2023/06/10 07:27:07;;;;;;;8.50;3.47;;;;;;;;;;4974561;28;20560;-77
2023/06/10 07:29:33;;;;;;;8.63;3.58;;;;;;;;;;4974248;28;20114;-76
2023/06/10 07:31:58;;;;;;;7.25;4.18;;;;;;;;;;4974064;28;20127;-81
2023/06/10 07:34:24;;;;;;;7.03;3.92;;;;;;;;;;4974378;28;20030;-78
2023/06/10 07:36:50;;;;;;;4.93;3.55;;;;;;;;;;4972697;28;20437;-77
2023/06/10 07:39:15;;;;;;;8.05;3.88;;;;;;;;;;4973888;28;20202;-76
2023/06/10 07:41:42;;;;;;;7.47;3.92;;;;;;;;;;4974498;28;20042;-76
2023/06/10 07:44:07;;;;;;;5.82;4.22;;;;;;;;;;4972763;28;20477;-74
2023/06/10 07:46:33;;;;;;;10.63;3.95;;;;;;;;;;4973829;28;20039;-75
2023/06/10 07:48:58;;;;;;;9.23;3.70;;;;;;;;;;4971877;28;20488;-76
2023/06/10 07:51:24;;;;;;;7.93;3.80;;;;;;;;;;4973862;28;20493;-76
2023/06/10 07:53:50;;;;;;;7.32;3.58;;;;;;;;;;4974879;28;20022;-78
2023/06/10 07:56:16;;;;;;;7.55;4.18;;;;;;;;;;4973883;28;20042;-77
2023/06/10 07:58:41;;;;;;;6.35;3.90;;;;;;;;;;4973888;28;20431;-74
2023/06/10 08:01:08;;;;;;;5.72;3.30;;;;;;;;;;4973444;28;20070;-75
2023/06/10 08:03:34;;;;;;;6.38;4.15;;;;;;;;;;4973426;28;20022;-76
2023/06/10 08:06:00;;;;;;;8.73;4.18;;;;;;;;;;4973596;28;20225;-76
2023/06/10 08:08:26;;;;;;;9.38;4.03;;;;;;;;;;4973661;28;20027;-76
2023/06/10 08:10:52;;;;;;;8.63;3.40;;;;;;;;;;4973690;28;20385;-77
2023/06/10 08:13:19;;;;;;;10.35;3.95;;;;;;;;;;4973350;28;20076;-76
2023/06/10 08:15:47;;;;;;;10.50;3.67;;;;;;;;;;4973118;28;20094;-77
2023/06/10 08:18:13;;;;;;;6.97;4.00;;;;;;;;;;4973571;28;20027;-75
2023/06/10 08:20:39;;;;;;;11.55;3.70;;;;;;;;;;4973214;28;20030;-75
2023/06/10 08:23:04;;;;;;;6.85;3.92;;;;;;;;;;4973138;28;20117;-74
2023/06/10 08:25:30;;;;;;;8.05;4.18;;;;;;;;;;4972398;28;20106;-75
2023/06/10 08:27:57;;;;;;;4.20;3.25;;;;;;;;;;4973168;28;20034;-75
2023/06/10 08:30:23;;;;;;;8.88;3.72;;;;;;;;;;4972611;28;20034;-75
2023/06/10 08:32:48;;;;;;;6.93;3.97;;;;;;;;;;4974700;28;20058;-75
2023/06/10 08:35:14;;;;;;;5.32;3.67;;;;;;;;;;4982358;28;20038;-76
2023/06/10 08:37:40;;;;;;;8.02;3.53;;;;;;;;;;4982395;28;20026;-75
2023/06/10 08:40:07;;;;;;;11.32;3.53;;;;;;;;;;4981769;28;20031;-75
2023/06/10 08:42:46;;;;;;;6.10;3.80;;;;;;;;;;4983499;28;20026;-76
2023/06/10 08:45:17;;;;;;;6.70;3.90;;;;;;;;;;4981112;28;20030;-75
2023/06/10 08:47:48;;;;;;;5.35;3.42;;;;;;;;;;4984499;28;20046;-75
2023/06/10 08:50:16;;;;;;;4.75;3.25;;;;;;;;;;5012249;28;20045;-74
2023/06/10 08:52:47;;;;;;;9.18;3.80;;;;;;;;;;4972624;28;20562;-75
2023/06/10 08:55:26;;;;;;;9.85;3.60;;;;;;;;;;4955806;28;20045;-74
2023/06/10 08:57:52;;;;;;;8.80;3.30;;;;;;;;;;4972944;28;20158;-75
2023/06/10 09:00:19;;;;;;;10.05;3.75;;;;;;;;;;4972701;28;20501;-75
2023/06/10 09:02:47;;;;;;;7.85;3.50;;;;;;;;;;4973250;28;20069;-74
2023/06/10 09:05:16;;;;;;;5.00;3.30;;;;;;;;;;4973276;28;20045;-75
2023/06/10 09:07:42;;;;;;;7.35;3.75;;;;;;;;;;4970930;28;20595;-75
2023/06/10 09:10:08;;;;;;;8.80;4.70;;;;;;;;;;4971172;28;20030;-74
2023/06/10 09:12:37;;;;;;;9.25;4.13;;;;;;;;;;4972366;28;20053;-76
2023/06/10 09:15:04;;;;;;;7.72;3.47;;;;;;;;;;4972724;28;20469;-74
2023/06/10 09:17:31;;;;;;;12.50;3.72;;;;;;;;;;4971411;28;20138;-76
2023/06/10 09:19:57;;;;;;;18.35;4.13;;;;;;;;;;4956912;28;20031;-76
2023/06/10 09:22:26;;;;;;;12.23;3.80;;;;;;;;;;4974800;28;20046;-78
2023/06/10 09:25:11;;;;;;;7.50;3.67;;;;;;;;;;4975249;28;20058;-77
2023/06/10 09:27:56;;;;;;;6.53;3.45;;;;;;;;;;4976775;28;20034;-77
2023/06/10 09:30:33;;;;;;;9.48;4.38;;;;;;;;;;4975026;28;20412;-78
2023/06/10 09:33:01;;;;;;;4.47;3.25;;;;;;;;;;4973244;28;20058;-77
2023/06/10 09:35:29;;;;;;;6.93;3.35;;;;;;;;;;4979574;28;20031;-76
2023/06/10 09:37:57;;;;;;;7.93;3.35;;;;;;;;;;4976815;28;20030;-76
2023/06/10 09:40:24;;;;;;;11.88;3.28;;;;;;;;;;4984556;28;20026;-77
2023/06/10 09:42:59;;;;;;;5.57;3.50;;;;;;;;;;4998042;28;20034;-77
2023/06/10 09:45:30;;;;;;;6.95;3.75;;;;;;;;;;4991631;28;20133;-77
2023/06/10 09:47:56;;;;;;;13.55;4.32;;;;;;;;;;4994360;28;20058;-76
2023/06/10 09:50:21;;;;;;;8.07;3.40;;;;;;;;;;5012392;28;20065;-77
2023/06/10 09:52:48;;;;;;;8.00;3.83;;;;;;;;;;4993886;28;20034;-76
2023/06/10 09:55:14;;;;;;;6.55;3.35;;;;;;;;;;4995975;28;20061;-75
2023/06/10 09:57:41;;;;;;;7.18;3.35;;;;;;;;;;4994624;28;20038;-74
2023/06/10 10:00:08;;;;;;;7.63;3.90;;;;;;;;;;4993543;28;20641;-76
2023/06/10 10:02:45;;;;;;;6.07;3.22;;;;;;;;;;4991449;28;20064;-76
2023/06/10 10:05:14;;;;;;;5.90;3.70;;;;;;;;;;4990057;28;20045;-77
2023/06/10 10:07:39;;;;;;;5.40;3.58;;;;;;;;;;4990654;28;20022;-77
2023/06/10 10:10:08;;;;;;;6.82;3.65;;;;;;;;;;4989396;28;20038;-76
2023/06/10 10:12:35;;;;;;;12.65;4.40;;;;;;;;;;4971143;28;20134;-76
2023/06/10 10:15:02;;;;;;;9.05;4.50;;;;;;;;;;4972282;28;20042;-79
2023/06/10 10:17:29;;;;;;;6.75;3.80;;;;;;;;;;4973204;28;20108;-76
2023/06/10 10:20:04;;;;;;;7.65;3.90;;;;;;;;;;4975231;28;20071;-75
2023/06/10 10:22:40;;;;;;;9.15;4.03;;;;;;;;;;4976321;28;20050;-76
2023/06/10 10:25:15;;;;;;;8.10;3.53;;;;;;;;;;4976430;28;20088;-76
2023/06/10 10:28:04;;;;;;;4.80;3.63;;;;;;;;;;4976715;28;20046;-75
2023/06/10 10:30:37;;;;;;;7.88;3.33;;;;;;;;;;4973986;28;20047;-77
2023/06/10 10:33:42;;;;;;;8.25;3.97;;;;;;;;;;4975779;28;20245;-77
2023/06/10 10:36:08;;;;;;;7.72;3.58;;;;;;;;;;4974367;28;20113;-77
2023/06/10 10:38:35;;;;;;;5.32;3.42;;;;;;;;;;4975228;28;20085;-75
2023/06/10 10:41:02;;;;;;;6.32;3.80;;;;;;;;;;4976018;28;20054;-76
2023/06/10 10:43:30;;;;;;;8.38;3.75;;;;;;;;;;4975835;28;20026;-76
2023/06/10 10:46:06;;;;;;;7.22;4.32;;;;;;;;;;4974289;28;20544;-76
2023/06/10 10:48:37;;;;;;;7.28;3.17;;;;;;;;;;4975554;28;20043;-78
2023/06/10 10:51:04;;;;;;;27.13;18.73;;;;;;;;;;4974161;28;20047;-78
2023/06/10 10:53:30;;;;;;;4.90;3.70;;;;;;;;;;4974013;28;20026;-77
2023/06/10 10:56:17;;;;;;;15.30;3.55;;;;;;;;;;4975582;28;20496;-75
2023/06/10 10:59:02;;;;;;;8.80;3.35;;;;;;;;;;4975448;28;20228;-77
2023/06/10 11:01:41;;;;;;;10.43;3.75;;;;;;;;;;4975691;28;20059;-77
2023/06/10 11:04:09;;;;;;;7.60;5.55;;;;;;;;;;4975573;28;20057;-75
2023/06/10 11:06:35;;;;;;;5.15;3.70;;;;;;;;;;4975234;28;20054;-76
2023/06/10 11:09:20;;;;;;;6.72;3.55;;;;;;;;;;4973687;28;20121;-74
2023/06/10 11:11:50;;;;;;;7.20;3.50;;;;;;;;;;4974845;28;20090;-75
2023/06/10 11:14:28;;;;;;;6.88;3.85;;;;;;;;;;4975073;28;20033;-76
2023/06/10 11:16:57;;;;;;;5.57;3.88;;;;;;;;;;4975063;28;20035;-75
2023/06/10 11:19:36;;;;;;;11.13;4.28;;;;;;;;;;4974800;28;20054;-76
2023/06/10 11:22:09;;;;;;;5.50;3.53;;;;;;;;;;4973384;28;20034;-76
2023/06/10 11:24:35;;;;;;;9.20;3.55;;;;;;;;;;4974939;28;20031;-79
2023/06/10 11:27:21;;;;;;;5.95;3.30;;;;;;;;;;4974817;28;20037;-77
2023/06/10 11:30:05;;;;;;;5.97;3.60;;;;;;;;;;4984546;28;20037;-76
2023/06/10 11:32:32;;;;;;;9.50;4.60;;;;;;;;;;4973719;28;20500;-76
2023/06/10 11:34:58;;;;;;;9.77;3.70;;;;;;;;;;4974412;28;20026;-76
2023/06/10 11:37:25;;;;;;;6.85;3.13;;;;;;;;;;4974196;28;20596;-75
2023/06/10 11:39:53;;;;;;;9.15;3.67;;;;;;;;;;4972873;28;20046;-73
2023/06/10 11:42:19;;;;;;;7.47;3.80;;;;;;;;;;4974180;28;20038;-76
2023/06/10 11:44:52;;;;;;;6.72;3.50;;;;;;;;;;4974442;28;20030;-75
2023/06/10 11:47:19;;;;;;;6.25;3.50;;;;;;;;;;4974504;28;20409;-75
2023/06/10 11:49:56;;;;;;;8.25;4.20;;;;;;;;;;4974496;28;20113;-76
2023/06/10 11:52:32;;;;;;;7.78;3.70;;;;;;;;;;4974040;28;20493;-77
2023/06/10 11:54:58;;;;;;;6.63;3.50;;;;;;;;;;4974149;28;20037;-73
2023/06/10 11:57:23;;;;;;;5.20;3.60;;;;;;;;;;4973100;28;20444;-76
2023/06/10 11:59:49;;;;;;;6.45;4.00;;;;;;;;;;4972831;28;20128;-76
2023/06/10 12:02:16;;;;;;;7.82;3.95;;;;;;;;;;4974275;28;20497;-76
2023/06/10 12:04:43;;;;;;;6.95;3.60;;;;;;;;;;4974352;28;20039;-77
2023/06/10 12:07:16;;;;;;;9.45;3.88;;;;;;;;;;4973750;28;20081;-76
2023/06/10 12:09:42;;;;;;;7.28;3.72;;;;;;;;;;4973657;28;20047;-74
2023/06/10 12:12:08;;;;;;;5.15;3.25;;;;;;;;;;4973809;28;20027;-75
2023/06/10 12:14:56;;;;;;;8.05;3.35;;;;;;;;;;4974082;28;20094;-76
2023/06/10 12:17:43;;;;;;;6.32;3.50;;;;;;;;;;4973673;28;20034;-75
2023/06/10 12:20:25;;;;;;;7.70;3.40;;;;;;;;;;4973737;28;20046;-75
2023/06/10 12:22:50;;;;;;;5.53;3.55;;;;;;;;;;4973967;28;20054;-75
2023/06/10 12:25:16;;;;;;;5.20;3.38;;;;;;;;;;4972289;28;20186;-75
2023/06/10 12:27:53;;;;;;;6.15;3.58;;;;;;;;;;4972352;28;20039;-77
2023/06/10 12:30:21;;;;;;;7.68;3.38;;;;;;;;;;4972343;28;20079;-75
2023/06/10 12:32:47;;;;;;;5.50;3.30;;;;;;;;;;4973674;28;20504;-75
2023/06/10 12:35:18;;;;;;;4.82;3.22;;;;;;;;;;4972659;28;20046;-76
2023/06/10 12:37:56;;;;;;;4.72;2.97;;;;;;;;;;4973469;28;20042;-76
2023/06/10 12:40:37;;;;;;;7.13;3.40;;;;;;;;;;4966433;28;20608;-75
2023/06/10 12:43:03;;;;;;;8.30;3.60;;;;;;;;;;4971937;28;20038;-77
2023/06/10 12:45:33;;;;;;;7.80;3.60;;;;;;;;;;4972501;28;20023;-74
2023/06/10 12:48:24;;;;;;;7.97;3.85;;;;;;;;;;4972860;28;20027;-75
2023/06/10 12:50:57;;;;;;;9.07;3.85;;;;;;;;;;4971642;28;20034;-75
2023/06/10 12:53:24;;;;;;;8.50;3.45;;;;;;;;;;4972898;28;20039;-76
2023/06/10 12:55:51;;;;;;;7.07;3.25;;;;;;;;;;4972720;28;20027;-77
2023/06/10 12:58:16;;;;;;;4.85;3.05;;;;;;;;;;4972756;28;20554;-74
2023/06/10 13:00:43;;;;;;;6.43;3.25;;;;;;;;;;4972640;28;20122;-76
2023/06/10 13:03:09;;;;;;;5.97;3.72;;;;;;;;;;4973049;28;20041;-73
2023/06/10 13:05:38;;;;;;;5.78;3.58;;;;;;;;;;4972832;28;20094;-75
2023/06/10 13:08:09;;;;;;;8.73;3.45;;;;;;;;;;4976190;28;20447;-72
2023/06/10 13:10:36;;;;;;;8.98;3.33;;;;;;;;;;4955137;28;20417;-75
2023/06/10 13:13:05;;;;;;;5.13;3.35;;;;;;;;;;4972739;28;20575;-74
2023/06/10 13:15:32;;;;;;;8.55;3.72;;;;;;;;;;4971876;28;20068;-73
2023/06/10 13:17:58;;;;;;;6.13;3.33;;;;;;;;;;4970634;28;20031;-73
2023/06/10 13:20:24;;;;;;;5.60;3.47;;;;;;;;;;4971416;28;20053;-74
2023/06/10 13:22:50;;;;;;;8.43;3.33;;;;;;;;;;4971943;28;20015;-76
2023/06/10 13:25:16;;;;;;;5.47;3.30;;;;;;;;;;4972311;28;20695;-76
2023/06/10 13:27:42;;;;;;;8.73;3.40;;;;;;;;;;4971985;28;20109;-73
2023/06/10 13:30:09;;;;;;;7.32;3.58;;;;;;;;;;4971373;28;20034;-75
2023/06/10 13:32:35;;;;;;;8.77;3.50;;;;;;;;;;4969530;28;20719;-73
2023/06/10 13:35:01;;;;;;;6.25;3.13;;;;;;;;;;4971988;28;20090;-75
2023/06/10 13:37:27;;;;;;;4.65;3.28;;;;;;;;;;4972090;28;20128;-73
2023/06/10 13:39:53;;;;;;;6.03;3.20;;;;;;;;;;4972029;28;20034;-76
2023/06/10 13:42:20;;;;;;;6.22;3.20;;;;;;;;;;4953805;28;20035;-75
2023/06/10 13:44:47;;;;;;;5.90;3.22;;;;;;;;;;4971683;28;20051;-74
2023/06/10 13:47:13;;;;;;;10.52;3.60;;;;;;;;;;4971054;28;20739;-74
2023/06/10 13:49:39;;;;;;;7.25;3.78;;;;;;;;;;4972454;28;20041;-77
2023/06/10 13:52:06;;;;;;;7.10;3.63;;;;;;;;;;4971569;28;20055;-78
2023/06/10 13:54:33;;;;;;;6.68;3.20;;;;;;;;;;4958032;28;20133;-76
2023/06/10 13:57:00;;;;;;;8.02;3.60;;;;;;;;;;4975748;28;20025;-77
2023/06/10 13:59:25;;;;;;;5.95;3.35;;;;;;;;;;4974257;28;20039;-74
2023/06/10 14:01:51;;;;;;;5.75;3.38;;;;;;;;;;4974284;28;20460;-76
2023/06/10 14:04:18;;;;;;;4.55;3.30;;;;;;;;;;4976192;28;20125;-77
2023/06/10 14:06:45;;;;;;;6.53;3.60;;;;;;;;;;4974237;28;20029;-75
2023/06/10 14:09:14;;;;;;;5.25;3.10;;;;;;;;;;4958315;28;20188;-74
2023/06/10 14:11:39;;;;;;;5.65;3.22;;;;;;;;;;4975103;28;20489;-73
2023/06/10 14:14:05;;;;;;;5.10;3.45;;;;;;;;;;4974245;28;20069;-74
2023/06/10 14:16:31;;;;;;;5.32;3.05;;;;;;;;;;4976386;28;20035;-73
2023/06/10 14:18:57;;;;;;;4.75;3.55;;;;;;;;;;4975992;28;20137;-77
2023/06/10 14:21:23;;;;;;;6.45;3.65;;;;;;;;;;4975806;28;20052;-75
2023/06/10 14:23:51;;;;;;;4.90;3.35;;;;;;;;;;4975691;28;20054;-74
2023/06/10 14:26:17;;;;;;;5.70;3.20;;;;;;;;;;4975814;28;20031;-74
2023/06/10 14:28:43;;;;;;;9.40;3.45;;;;;;;;;;4974019;28;20508;-75
2023/06/10 14:31:08;;;;;;;9.30;3.45;;;;;;;;;;4974257;28;20031;-75
2023/06/10 14:33:34;;;;;;;7.72;3.45;;;;;;;;;;4975858;28;20410;-74
2023/06/10 14:36:00;;;;;;;5.38;3.58;;;;;;;;;;4975342;28;20049;-74
2023/06/10 14:38:25;;;;;;;7.35;3.85;;;;;;;;;;4975383;28;20066;-76
2023/06/10 14:40:52;;;;;;;7.97;3.65;;;;;;;;;;4973744;28;20070;-73
2023/06/10 14:43:18;;;;;;;7.45;3.90;;;;;;;;;;4975687;28;20047;-75
2023/06/10 14:45:45;;;;;;;9.25;3.83;;;;;;;;;;4975350;28;20025;-74
2023/06/10 14:48:11;;;;;;;7.32;3.67;;;;;;;;;;4975147;28;20122;-76